sensor_id;sensor_type;location;lat;lon;timestamp;temperature;humidity
41944;DHT22;27636;52.610;13.244;2023-02-15T00:04:48;-0.20;99.90
41944;DHT22;27636;52.610;13.244;2023-02-15T00:09:53;-0.30;99.90
41944;DHT22;27636;52.610;13.244;2023-02-15T00:14:57;-0.30;99.90
41944;DHT22;27636;52.610;13.244;2023-02-15T00:20:00;-0.40;99.90
41944;DHT22;27636;52.610;13.244;2023-02-15T00:25:05;-0.40;99.90
41944;DHT22;27636;52.610;13.244;2023-02-15T00:30:10;-0.50;99.90
41944;DHT22;27636;52.610;13.244;2023-02-15T00:35:14;-0.60;99.90
41944;DHT22;27636;52.610;13.244;2023-02-15T00:40:20;-0.70;99.90
41944;DHT22;27636;52.610;13.244;2023-02-15T00:45:24;-0.60;99.90
41944;DHT22;27636;52.610;13.244;2023-02-15T00:50:28;-0.70;99.90
41944;DHT22;27636;52.610;13.244;2023-02-15T00:55:33;-0.70;99.90
41944;DHT22;27636;52.610;13.244;2023-02-15T01:00:38;-0.80;99.90
41944;DHT22;27636;52.610;13.244;2023-02-15T01:05:43;-0.80;99.90
41944;DHT22;27636;52.610;13.244;2023-02-15T01:10:48;-0.90;99.90
41944;DHT22;27636;52.610;13.244;2023-02-15T01:15:54;-1.00;99.90
41944;DHT22;27636;52.610;13.244;2023-02-15T01:20:58;-1.10;99.90
41944;DHT22;27636;52.610;13.244;2023-02-15T01:26:04;-1.00;99.90
41944;DHT22;27636;52.610;13.244;2023-02-15T01:31:10;-1.00;99.90
41944;DHT22;27636;52.610;13.244;2023-02-15T01:36:14;-0.90;99.90
41944;DHT22;27636;52.610;13.244;2023-02-15T01:41:19;-1.10;99.90
41944;DHT22;27636;52.610;13.244;2023-02-15T01:46:27;-1.20;99.90
41944;DHT22;27636;52.610;13.244;2023-02-15T01:51:35;-1.20;99.90
41944;DHT22;27636;52.610;13.244;2023-02-15T01:56:41;-1.20;99.90
41944;DHT22;27636;52.610;13.244;2023-02-15T02:01:46;-1.20;99.90
41944;DHT22;27636;52.610;13.244;2023-02-15T02:06:50;-1.20;99.90
41944;DHT22;27636;52.610;13.244;2023-02-15T02:11:56;-1.30;99.90
41944;DHT22;27636;52.610;13.244;2023-02-15T02:17:07;-1.40;99.90
41944;DHT22;27636;52.610;13.244;2023-02-15T02:22:59;-1.30;99.90
41944;DHT22;27636;52.610;13.244;2023-02-15T02:28:18;-1.30;99.90
41944;DHT22;27636;52.610;13.244;2023-02-15T02:33:41;-1.50;99.90
41944;DHT22;27636;52.610;13.244;2023-02-15T02:38:57;-1.40;99.90
41944;DHT22;27636;52.610;13.244;2023-02-15T02:44:10;-1.40;99.90
41944;DHT22;27636;52.610;13.244;2023-02-15T02:49:31;-1.40;99.90
41944;DHT22;27636;52.610;13.244;2023-02-15T02:54:37;-1.40;99.90
41944;DHT22;27636;52.610;13.244;2023-02-15T02:59:45;-1.40;99.90
41944;DHT22;27636;52.610;13.244;2023-02-15T03:04:55;-1.40;99.90
41944;DHT22;27636;52.610;13.244;2023-02-15T03:10:09;-1.50;99.90
41944;DHT22;27636;52.610;13.244;2023-02-15T03:15:16;-1.50;99.90
41944;DHT22;27636;52.610;13.244;2023-02-15T03:20:26;-1.40;99.90
41944;DHT22;27636;52.610;13.244;2023-02-15T03:25:33;-1.50;99.90
41944;DHT22;27636;52.610;13.244;2023-02-15T03:30:39;-1.50;99.90
41944;DHT22;27636;52.610;13.244;2023-02-15T03:35:49;-1.50;99.90
41944;DHT22;27636;52.610;13.244;2023-02-15T03:40:53;-1.70;99.90
41944;DHT22;27636;52.610;13.244;2023-02-15T03:46:18;-1.70;99.90
41944;DHT22;27636;52.610;13.244;2023-02-15T03:51:27;-1.70;99.90
41944;DHT22;27636;52.610;13.244;2023-02-15T03:56:38;-1.30;99.90
41944;DHT22;27636;52.610;13.244;2023-02-15T04:01:48;-1.40;99.90
41944;DHT22;27636;52.610;13.244;2023-02-15T04:07:04;-1.50;99.90
41944;DHT22;27636;52.610;13.244;2023-02-15T04:12:08;-1.40;99.90
41944;DHT22;27636;52.610;13.244;2023-02-15T04:17:12;-1.30;99.90
41944;DHT22;27636;52.610;13.244;2023-02-15T04:22:18;-1.30;99.90
41944;DHT22;27636;52.610;13.244;2023-02-15T04:27:41;-1.30;99.90
41944;DHT22;27636;52.610;13.244;2023-02-15T04:32:45;-1.30;99.90
41944;DHT22;27636;52.610;13.244;2023-02-15T04:37:50;-1.10;99.90
41944;DHT22;27636;52.610;13.244;2023-02-15T04:42:54;-0.90;99.90
41944;DHT22;27636;52.610;13.244;2023-02-15T04:47:57;-0.80;99.90
41944;DHT22;27636;52.610;13.244;2023-02-15T04:53:02;-1.00;99.90
41944;DHT22;27636;52.610;13.244;2023-02-15T04:58:06;-1.00;99.90
41944;DHT22;27636;52.610;13.244;2023-02-15T05:03:10;-1.10;99.90
41944;DHT22;27636;52.610;13.244;2023-02-15T05:08:16;-1.10;99.90
41944;DHT22;27636;52.610;13.244;2023-02-15T05:13:19;-1.20;99.90
41944;DHT22;27636;52.610;13.244;2023-02-15T05:18:23;-1.20;99.90
41944;DHT22;27636;52.610;13.244;2023-02-15T05:23:28;-1.50;99.90
41944;DHT22;27636;52.610;13.244;2023-02-15T05:28:32;-1.70;99.90
41944;DHT22;27636;52.610;13.244;2023-02-15T05:33:36;-1.60;99.90
41944;DHT22;27636;52.610;13.244;2023-02-15T05:38:41;-1.50;99.90
41944;DHT22;27636;52.610;13.244;2023-02-15T05:43:45;-1.30;99.90
41944;DHT22;27636;52.610;13.244;2023-02-15T05:48:49;-1.30;99.90
41944;DHT22;27636;52.610;13.244;2023-02-15T05:53:54;-1.30;99.90
41944;DHT22;27636;52.610;13.244;2023-02-15T05:58:58;-1.30;99.90
41944;DHT22;27636;52.610;13.244;2023-02-15T06:04:02;-1.50;99.90
41944;DHT22;27636;52.610;13.244;2023-02-15T06:09:07;-1.50;99.90
41944;DHT22;27636;52.610;13.244;2023-02-15T06:14:11;-1.50;99.90
41944;DHT22;27636;52.610;13.244;2023-02-15T06:19:21;-1.40;99.90
41944;DHT22;27636;52.610;13.244;2023-02-15T06:24:27;-1.40;99.90
41944;DHT22;27636;52.610;13.244;2023-02-15T06:29:35;-1.50;99.90
41944;DHT22;27636;52.610;13.244;2023-02-15T06:34:38;-1.40;99.90
41944;DHT22;27636;52.610;13.244;2023-02-15T06:39:44;-1.20;99.90
41944;DHT22;27636;52.610;13.244;2023-02-15T06:44:47;-1.20;99.90
41944;DHT22;27636;52.610;13.244;2023-02-15T06:49:51;-1.30;99.90
41944;DHT22;27636;52.610;13.244;2023-02-15T06:54:56;-1.30;99.90
41944;DHT22;27636;52.610;13.244;2023-02-15T07:00:00;-1.30;99.90
41944;DHT22;27636;52.610;13.244;2023-02-15T07:05:07;-1.20;99.90
41944;DHT22;27636;52.610;13.244;2023-02-15T07:10:13;-1.00;99.90
41944;DHT22;27636;52.610;13.244;2023-02-15T07:15:19;-0.80;99.90
41944;DHT22;27636;52.610;13.244;2023-02-15T07:20:25;-0.60;99.90
41944;DHT22;27636;52.610;13.244;2023-02-15T07:25:30;-0.30;99.90
41944;DHT22;27636;52.610;13.244;2023-02-15T07:30:36;0.00;99.90
41944;DHT22;27636;52.610;13.244;2023-02-15T07:35:46;0.30;99.90
41944;DHT22;27636;52.610;13.244;2023-02-15T07:40:56;0.50;99.90
41944;DHT22;27636;52.610;13.244;2023-02-15T07:46:01;0.70;99.90
41944;DHT22;27636;52.610;13.244;2023-02-15T07:51:08;1.00;99.90
41944;DHT22;27636;52.610;13.244;2023-02-15T07:56:14;0.90;99.90
41944;DHT22;27636;52.610;13.244;2023-02-15T08:01:18;1.10;99.90
41944;DHT22;27636;52.610;13.244;2023-02-15T08:06:24;1.10;99.90
41944;DHT22;27636;52.610;13.244;2023-02-15T08:11:31;1.40;99.90
41944;DHT22;27636;52.610;13.244;2023-02-15T08:16:44;1.40;99.90
41944;DHT22;27636;52.610;13.244;2023-02-15T08:21:50;1.60;99.90
41944;DHT22;27636;52.610;13.244;2023-02-15T08:26:56;1.70;99.90
41944;DHT22;27636;52.610;13.244;2023-02-15T08:32:02;1.70;99.90
41944;DHT22;27636;52.610;13.244;2023-02-15T08:37:06;1.90;99.90
41944;DHT22;27636;52.610;13.244;2023-02-15T08:42:11;1.90;99.90
41944;DHT22;27636;52.610;13.244;2023-02-15T08:47:15;2.00;99.90
41944;DHT22;27636;52.610;13.244;2023-02-15T08:52:19;2.10;99.90
41944;DHT22;27636;52.610;13.244;2023-02-15T08:57:24;1.90;99.90
41944;DHT22;27636;52.610;13.244;2023-02-15T09:02:28;2.30;99.90
41944;DHT22;27636;52.610;13.244;2023-02-15T09:07:32;2.70;99.90
41944;DHT22;27636;52.610;13.244;2023-02-15T09:12:37;2.80;99.90
41944;DHT22;27636;52.610;13.244;2023-02-15T09:17:42;3.10;99.90
41944;DHT22;27636;52.610;13.244;2023-02-15T09:22:46;3.00;99.90
41944;DHT22;27636;52.610;13.244;2023-02-15T09:27:51;3.10;99.90
41944;DHT22;27636;52.610;13.244;2023-02-15T09:32:56;3.40;99.90
41944;DHT22;27636;52.610;13.244;2023-02-15T09:37:59;3.40;99.90
41944;DHT22;27636;52.610;13.244;2023-02-15T09:43:28;3.60;99.90
41944;DHT22;27636;52.610;13.244;2023-02-15T09:48:39;3.70;99.90
41944;DHT22;27636;52.610;13.244;2023-02-15T09:53:54;4.10;99.90
41944;DHT22;27636;52.610;13.244;2023-02-15T09:59:08;4.20;99.90
41944;DHT22;27636;52.610;13.244;2023-02-15T10:04:25;4.40;99.90
41944;DHT22;27636;52.610;13.244;2023-02-15T10:09:43;4.80;99.90
41944;DHT22;27636;52.610;13.244;2023-02-15T10:15:08;5.00;99.90
41944;DHT22;27636;52.610;13.244;2023-02-15T10:20:25;5.40;99.90
41944;DHT22;27636;52.610;13.244;2023-02-15T10:25:40;6.00;99.90
41944;DHT22;27636;52.610;13.244;2023-02-15T10:30:49;6.60;99.90
41944;DHT22;27636;52.610;13.244;2023-02-15T10:36:01;6.60;99.90
41944;DHT22;27636;52.610;13.244;2023-02-15T10:41:20;6.30;99.90
41944;DHT22;27636;52.610;13.244;2023-02-15T10:46:40;6.00;99.90
41944;DHT22;27636;52.610;13.244;2023-02-15T10:51:58;5.80;99.90
41944;DHT22;27636;52.610;13.244;2023-02-15T10:57:16;5.90;99.90
41944;DHT22;27636;52.610;13.244;2023-02-15T11:02:33;6.10;99.90
41944;DHT22;27636;52.610;13.244;2023-02-15T11:07:44;6.40;99.90
41944;DHT22;27636;52.610;13.244;2023-02-15T11:12:49;6.60;99.90
41944;DHT22;27636;52.610;13.244;2023-02-15T11:17:57;7.30;99.90
41944;DHT22;27636;52.610;13.244;2023-02-15T11:23:02;7.50;99.90
41944;DHT22;27636;52.610;13.244;2023-02-15T11:28:14;6.90;99.90
41944;DHT22;27636;52.610;13.244;2023-02-15T11:33:25;6.80;99.90
41944;DHT22;27636;52.610;13.244;2023-02-15T11:38:32;7.20;99.90
41944;DHT22;27636;52.610;13.244;2023-02-15T11:43:39;7.40;99.90
41944;DHT22;27636;52.610;13.244;2023-02-15T11:48:46;7.30;99.90
41944;DHT22;27636;52.610;13.244;2023-02-15T11:53:50;7.90;99.90
41944;DHT22;27636;52.610;13.244;2023-02-15T11:58:58;8.00;99.90
41944;DHT22;27636;52.610;13.244;2023-02-15T12:04:08;7.90;99.90
41944;DHT22;27636;52.610;13.244;2023-02-15T12:09:18;8.10;99.90
41944;DHT22;27636;52.610;13.244;2023-02-15T12:14:26;8.40;99.90
41944;DHT22;27636;52.610;13.244;2023-02-15T12:19:36;8.60;99.90
41944;DHT22;27636;52.610;13.244;2023-02-15T12:24:45;9.30;99.90
41944;DHT22;27636;52.610;13.244;2023-02-15T12:29:52;10.40;99.90
41944;DHT22;27636;52.610;13.244;2023-02-15T12:35:02;11.50;98.70
41944;DHT22;27636;52.610;13.244;2023-02-15T12:40:20;12.20;95.40
41944;DHT22;27636;52.610;13.244;2023-02-15T12:45:26;12.80;93.10
41944;DHT22;27636;52.610;13.244;2023-02-15T12:50:31;12.10;93.40
41944;DHT22;27636;52.610;13.244;2023-02-15T12:55:38;12.60;92.90
41944;DHT22;27636;52.610;13.244;2023-02-15T13:00:48;12.70;91.80
41944;DHT22;27636;52.610;13.244;2023-02-15T13:06:06;13.30;91.60
41944;DHT22;27636;52.610;13.244;2023-02-15T13:11:12;14.10;89.30
41944;DHT22;27636;52.610;13.244;2023-02-15T13:16:16;14.20;88.30
41944;DHT22;27636;52.610;13.244;2023-02-15T13:21:26;14.60;85.80
41944;DHT22;27636;52.610;13.244;2023-02-15T13:26:32;14.00;87.00
41944;DHT22;27636;52.610;13.244;2023-02-15T13:31:38;13.30;89.90
41944;DHT22;27636;52.610;13.244;2023-02-15T13:36:50;13.10;88.10
41944;DHT22;27636;52.610;13.244;2023-02-15T13:42:00;12.60;91.20
41944;DHT22;27636;52.610;13.244;2023-02-15T13:47:13;12.70;90.30
41944;DHT22;27636;52.610;13.244;2023-02-15T13:52:21;12.60;91.30
41944;DHT22;27636;52.610;13.244;2023-02-15T13:57:37;12.50;91.70
41944;DHT22;27636;52.610;13.244;2023-02-15T14:03:16;12.60;91.00
41944;DHT22;27636;52.610;13.244;2023-02-15T14:08:36;12.30;91.20
41944;DHT22;27636;52.610;13.244;2023-02-15T14:14:03;11.80;92.30
41944;DHT22;27636;52.610;13.244;2023-02-15T14:19:17;11.40;93.10
41944;DHT22;27636;52.610;13.244;2023-02-15T14:24:32;10.80;95.20
41944;DHT22;27636;52.610;13.244;2023-02-15T14:29:49;10.30;97.10
41944;DHT22;27636;52.610;13.244;2023-02-15T14:34:57;10.00;97.90
41944;DHT22;27636;52.610;13.244;2023-02-15T14:40:06;9.80;98.80
41944;DHT22;27636;52.610;13.244;2023-02-15T14:45:35;9.50;99.90
41944;DHT22;27636;52.610;13.244;2023-02-15T14:50:47;9.40;99.90
41944;DHT22;27636;52.610;13.244;2023-02-15T14:56:13;9.20;99.90
41944;DHT22;27636;52.610;13.244;2023-02-15T15:01:25;9.00;99.90
41944;DHT22;27636;52.610;13.244;2023-02-15T15:06:31;9.00;99.90
41944;DHT22;27636;52.610;13.244;2023-02-15T15:11:43;8.90;99.90
41944;DHT22;27636;52.610;13.244;2023-02-15T15:16:49;8.60;99.90
41944;DHT22;27636;52.610;13.244;2023-02-15T15:21:56;8.50;99.90
41944;DHT22;27636;52.610;13.244;2023-02-15T15:32:52;8.30;99.90
41944;DHT22;27636;52.610;13.244;2023-02-15T15:38:24;8.10;99.90
41944;DHT22;27636;52.610;13.244;2023-02-15T15:44:06;7.80;99.90
41944;DHT22;27636;52.610;13.244;2023-02-15T15:49:19;7.50;99.90
41944;DHT22;27636;52.610;13.244;2023-02-15T15:54:24;7.20;99.90
41944;DHT22;27636;52.610;13.244;2023-02-15T15:59:31;6.80;99.90
41944;DHT22;27636;52.610;13.244;2023-02-15T16:04:36;6.40;99.90
41944;DHT22;27636;52.610;13.244;2023-02-15T16:09:40;6.00;99.90
41944;DHT22;27636;52.610;13.244;2023-02-15T16:14:44;5.60;99.90
41944;DHT22;27636;52.610;13.244;2023-02-15T16:19:59;5.20;99.90
41944;DHT22;27636;52.610;13.244;2023-02-15T16:25:21;4.90;99.90
41944;DHT22;27636;52.610;13.244;2023-02-15T16:30:31;4.50;99.90
41944;DHT22;27636;52.610;13.244;2023-02-15T16:35:38;4.20;99.90
41944;DHT22;27636;52.610;13.244;2023-02-15T16:40:47;3.90;99.90
41944;DHT22;27636;52.610;13.244;2023-02-15T16:45:55;3.70;99.90
41944;DHT22;27636;52.610;13.244;2023-02-15T16:51:04;3.60;99.90
41944;DHT22;27636;52.610;13.244;2023-02-15T16:56:08;3.40;99.90
41944;DHT22;27636;52.610;13.244;2023-02-15T17:01:14;3.20;99.90
41944;DHT22;27636;52.610;13.244;2023-02-15T17:06:22;3.00;99.90
41944;DHT22;27636;52.610;13.244;2023-02-15T17:11:34;3.00;99.90
41944;DHT22;27636;52.610;13.244;2023-02-15T17:16:42;2.70;99.90
41944;DHT22;27636;52.610;13.244;2023-02-15T17:21:52;2.60;99.90
41944;DHT22;27636;52.610;13.244;2023-02-15T17:26:58;2.50;99.90
41944;DHT22;27636;52.610;13.244;2023-02-15T17:32:05;2.40;99.90
41944;DHT22;27636;52.610;13.244;2023-02-15T17:37:13;2.40;99.90
41944;DHT22;27636;52.610;13.244;2023-02-15T17:42:16;2.40;99.90
41944;DHT22;27636;52.610;13.244;2023-02-15T17:47:23;2.20;99.90
41944;DHT22;27636;52.610;13.244;2023-02-15T17:52:30;2.10;99.90
41944;DHT22;27636;52.610;13.244;2023-02-15T17:57:33;1.90;99.90
41944;DHT22;27636;52.610;13.244;2023-02-15T18:02:37;1.90;99.90
41944;DHT22;27636;52.610;13.244;2023-02-15T18:08:01;1.70;99.90
41944;DHT22;27636;52.610;13.244;2023-02-15T18:13:23;1.60;99.90
41944;DHT22;27636;52.610;13.244;2023-02-15T18:18:26;1.50;99.90
41944;DHT22;27636;52.610;13.244;2023-02-15T18:23:31;1.40;99.90
41944;DHT22;27636;52.610;13.244;2023-02-15T18:28:35;1.40;99.90
41944;DHT22;27636;52.610;13.244;2023-02-15T18:33:42;1.20;99.90
41944;DHT22;27636;52.610;13.244;2023-02-15T18:38:48;1.10;99.90
41944;DHT22;27636;52.610;13.244;2023-02-15T18:43:52;1.10;99.90
41944;DHT22;27636;52.610;13.244;2023-02-15T18:48:59;1.00;99.90
41944;DHT22;27636;52.610;13.244;2023-02-15T18:54:07;0.90;99.90
41944;DHT22;27636;52.610;13.244;2023-02-15T18:59:15;0.80;99.90
41944;DHT22;27636;52.610;13.244;2023-02-15T19:04:20;0.70;99.90
41944;DHT22;27636;52.610;13.244;2023-02-15T19:09:30;0.70;99.90
41944;DHT22;27636;52.610;13.244;2023-02-15T19:14:36;0.60;99.90
41944;DHT22;27636;52.610;13.244;2023-02-15T19:19:42;0.50;99.90
41944;DHT22;27636;52.610;13.244;2023-02-15T19:24:49;0.60;99.90
41944;DHT22;27636;52.610;13.244;2023-02-15T19:29:56;0.60;99.90
41944;DHT22;27636;52.610;13.244;2023-02-15T19:35:02;0.50;99.90
41944;DHT22;27636;52.610;13.244;2023-02-15T19:40:18;0.50;99.90
41944;DHT22;27636;52.610;13.244;2023-02-15T19:45:26;0.40;99.90
41944;DHT22;27636;52.610;13.244;2023-02-15T19:50:32;0.40;99.90
41944;DHT22;27636;52.610;13.244;2023-02-15T19:55:39;0.20;99.90
41944;DHT22;27636;52.610;13.244;2023-02-15T20:00:44;0.20;99.90
41944;DHT22;27636;52.610;13.244;2023-02-15T20:05:50;0.20;99.90
41944;DHT22;27636;52.610;13.244;2023-02-15T20:10:57;0.20;99.90
41944;DHT22;27636;52.610;13.244;2023-02-15T20:16:01;0.10;99.90
41944;DHT22;27636;52.610;13.244;2023-02-15T20:21:12;0.10;99.90
41944;DHT22;27636;52.610;13.244;2023-02-15T20:26:23;0.10;99.90
41944;DHT22;27636;52.610;13.244;2023-02-15T20:31:33;-0.10;99.90
41944;DHT22;27636;52.610;13.244;2023-02-15T20:36:38;-0.10;99.90
41944;DHT22;27636;52.610;13.244;2023-02-15T20:41:44;-0.20;99.90
41944;DHT22;27636;52.610;13.244;2023-02-15T20:46:53;-0.30;99.90
41944;DHT22;27636;52.610;13.244;2023-02-15T20:51:59;-0.30;99.90
41944;DHT22;27636;52.610;13.244;2023-02-15T20:57:09;-0.40;99.90
41944;DHT22;27636;52.610;13.244;2023-02-15T21:02:17;-0.40;99.90
41944;DHT22;27636;52.610;13.244;2023-02-15T21:07:22;-0.40;99.90
41944;DHT22;27636;52.610;13.244;2023-02-15T21:12:28;-0.50;99.90
41944;DHT22;27636;52.610;13.244;2023-02-15T21:17:32;-0.60;99.90
41944;DHT22;27636;52.610;13.244;2023-02-15T21:22:36;-0.40;99.90
41944;DHT22;27636;52.610;13.244;2023-02-15T21:27:42;-0.60;99.90
41944;DHT22;27636;52.610;13.244;2023-02-15T21:32:45;-0.70;99.90
41944;DHT22;27636;52.610;13.244;2023-02-15T21:37:50;-0.70;99.90
41944;DHT22;27636;52.610;13.244;2023-02-15T21:42:55;-0.70;99.90
41944;DHT22;27636;52.610;13.244;2023-02-15T21:48:17;-0.80;99.90
41944;DHT22;27636;52.610;13.244;2023-02-15T21:53:25;-0.80;99.90
41944;DHT22;27636;52.610;13.244;2023-02-15T21:58:32;-0.90;99.90
41944;DHT22;27636;52.610;13.244;2023-02-15T22:03:37;-0.90;99.90
41944;DHT22;27636;52.610;13.244;2023-02-15T22:08:42;-1.00;99.90
41944;DHT22;27636;52.610;13.244;2023-02-15T22:13:47;-0.90;99.90
41944;DHT22;27636;52.610;13.244;2023-02-15T22:18:51;-1.00;99.90
41944;DHT22;27636;52.610;13.244;2023-02-15T22:23:54;-1.00;99.90
41944;DHT22;27636;52.610;13.244;2023-02-15T22:28:59;-1.00;99.90
41944;DHT22;27636;52.610;13.244;2023-02-15T22:34:03;-1.10;99.90
41944;DHT22;27636;52.610;13.244;2023-02-15T22:39:07;-1.10;99.90
41944;DHT22;27636;52.610;13.244;2023-02-15T22:44:16;-1.10;99.90
41944;DHT22;27636;52.610;13.244;2023-02-15T22:49:21;-1.20;99.90
41944;DHT22;27636;52.610;13.244;2023-02-15T22:54:24;-1.30;99.90
41944;DHT22;27636;52.610;13.244;2023-02-15T22:59:30;-1.20;99.90
41944;DHT22;27636;52.610;13.244;2023-02-15T23:04:36;-1.20;99.90
41944;DHT22;27636;52.610;13.244;2023-02-15T23:09:39;-1.20;99.90
41944;DHT22;27636;52.610;13.244;2023-02-15T23:14:44;-1.20;99.90
41944;DHT22;27636;52.610;13.244;2023-02-15T23:19:47;-1.10;99.90
41944;DHT22;27636;52.610;13.244;2023-02-15T23:24:51;-1.10;99.90
41944;DHT22;27636;52.610;13.244;2023-02-15T23:29:57;-1.10;99.90
41944;DHT22;27636;52.610;13.244;2023-02-15T23:35:00;-1.10;99.90
41944;DHT22;27636;52.610;13.244;2023-02-15T23:40:05;-1.10;99.90
41944;DHT22;27636;52.610;13.244;2023-02-15T23:45:36;-1.10;99.90
41944;DHT22;27636;52.610;13.244;2023-02-15T23:50:40;-1.00;99.90
41944;DHT22;27636;52.610;13.244;2023-02-15T23:55:43;-0.80;99.90
